Time;durP1;ratioP1;P1;durP2;ratioP2;P2;SDS_P1;SDS_P2;PMS_P1;PMS_P2;Temp;Humidity;BMP_temperature;BMP_pressure;BME280_temperature;BME280_humidity;BME280_pressure;Samples;Min_cycle;Max_cycle;Signal;HPM_P1;HPM_P2
2021/03/06 00:00:24;;;;;;;1.00;0.50;;;;;;;;;;5056325;28;20028;-62
2021/03/06 00:02:54;;;;;;;1.27;0.60;;;;;;;;;;5056335;28;20047;-63
2021/03/06 00:05:21;;;;;;;1.50;0.68;;;;;;;;;;5056412;28;20021;-62
2021/03/06 00:07:47;;;;;;;0.88;0.60;;;;;;;;;;5056224;28;20025;-61
2021/03/06 00:10:14;;;;;;;1.25;0.73;;;;;;;;;;5056256;28;20122;-62
2021/03/06 00:12:41;;;;;;;1.02;0.60;;;;;;;;;;5055920;28;20505;-62
2021/03/06 00:15:08;;;;;;;1.83;0.70;;;;;;;;;;5056096;28;20489;-62
2021/03/06 00:17:35;;;;;;;1.38;0.70;;;;;;;;;;5055857;28;20025;-62
2021/03/06 00:20:01;;;;;;;1.42;0.70;;;;;;;;;;5056280;28;20033;-62
2021/03/06 00:22:27;;;;;;;1.40;0.90;;;;;;;;;;5055864;28;20382;-62
2021/03/06 00:24:53;;;;;;;1.30;0.70;;;;;;;;;;5056193;28;20064;-62
2021/03/06 00:27:19;;;;;;;1.92;0.63;;;;;;;;;;5056065;28;20036;-61
2021/03/06 00:29:46;;;;;;;1.55;0.75;;;;;;;;;;5055724;28;20025;-62
2021/03/06 00:32:12;;;;;;;1.33;0.70;;;;;;;;;;5055697;28;20051;-62
2021/03/06 00:34:38;;;;;;;1.13;0.65;;;;;;;;;;5055813;28;20470;-62
2021/03/06 00:37:04;;;;;;;1.27;0.80;;;;;;;;;;5055559;28;20378;-60
2021/03/06 00:39:31;;;;;;;1.15;0.70;;;;;;;;;;5055592;28;20025;-61
2021/03/06 00:41:57;;;;;;;3.50;0.80;;;;;;;;;;5055492;28;20482;-60
2021/03/06 00:44:23;;;;;;;1.60;0.90;;;;;;;;;;5055473;28;20036;-61
2021/03/06 00:46:49;;;;;;;3.35;1.27;;;;;;;;;;5055351;28;20029;-60
2021/03/06 00:49:19;;;;;;;1.80;0.93;;;;;;;;;;5055357;28;20025;-62
2021/03/06 00:51:46;;;;;;;1.40;0.80;;;;;;;;;;5055286;28;20108;-61
2021/03/06 00:54:12;;;;;;;1.45;1.10;;;;;;;;;;5055398;28;20021;-61
2021/03/06 00:56:38;;;;;;;2.67;1.10;;;;;;;;;;5055300;28;20059;-61
2021/03/06 00:59:04;;;;;;;2.28;1.40;;;;;;;;;;5055522;28;20083;-62
2021/03/06 01:01:30;;;;;;;3.08;1.38;;;;;;;;;;5054045;28;20021;-61
2021/03/06 01:03:57;;;;;;;2.20;1.63;;;;;;;;;;5055462;28;20026;-62
2021/03/06 01:06:23;;;;;;;2.78;1.33;;;;;;;;;;5055051;28;20028;-62
2021/03/06 01:08:49;;;;;;;2.17;1.45;;;;;;;;;;5055117;28;20025;-62
2021/03/06 01:11:15;;;;;;;2.67;1.60;;;;;;;;;;5054955;28;20144;-62
2021/03/06 01:13:41;;;;;;;4.05;1.60;;;;;;;;;;5054907;28;20013;-62
2021/03/06 01:16:08;;;;;;;7.60;2.47;;;;;;;;;;5054879;28;20033;-61
2021/03/06 01:18:34;;;;;;;6.28;3.05;;;;;;;;;;5054841;28;20029;-61
2021/03/06 01:21:00;;;;;;;4.03;2.53;;;;;;;;;;5054931;28;20029;-61
2021/03/06 01:23:26;;;;;;;2.67;1.70;;;;;;;;;;5054711;28;20021;-61
2021/03/06 01:25:52;;;;;;;8.07;2.97;;;;;;;;;;5053623;28;20052;-61
2021/03/06 01:28:19;;;;;;;3.67;2.28;;;;;;;;;;5054654;28;20021;-62
2021/03/06 01:30:45;;;;;;;4.30;2.08;;;;;;;;;;5054720;28;20021;-61
2021/03/06 01:33:11;;;;;;;2.75;2.08;;;;;;;;;;5054486;28;20039;-62
2021/03/06 01:35:37;;;;;;;3.35;2.20;;;;;;;;;;5054473;28;20491;-61
2021/03/06 01:38:03;;;;;;;2.95;2.20;;;;;;;;;;5054412;28;20094;-60
2021/03/06 01:40:33;;;;;;;3.30;2.33;;;;;;;;;;5053988;28;20124;-61
2021/03/06 01:43:03;;;;;;;3.22;2.55;;;;;;;;;;5054634;28;20065;-61
2021/03/06 01:45:29;;;;;;;2.95;2.30;;;;;;;;;;5054378;28;20029;-61
2021/03/06 01:47:55;;;;;;;3.22;2.40;;;;;;;;;;5054153;28;20079;-62
2021/03/06 01:50:21;;;;;;;2.97;2.22;;;;;;;;;;5054146;28;20428;-61
2021/03/06 01:52:49;;;;;;;3.78;2.22;;;;;;;;;;5054450;28;20060;-61
2021/03/06 01:55:16;;;;;;;3.83;2.35;;;;;;;;;;5054193;28;20053;-61
2021/03/06 01:57:43;;;;;;;3.20;2.13;;;;;;;;;;5054251;28;20072;-61
2021/03/06 02:00:09;;;;;;;3.10;1.90;;;;;;;;;;5054409;28;20408;-62
2021/03/06 02:02:35;;;;;;;3.40;2.28;;;;;;;;;;5054280;28;20377;-63
2021/03/06 02:05:01;;;;;;;5.38;2.30;;;;;;;;;;5054254;28;20052;-62
2021/03/06 02:07:28;;;;;;;3.92;2.58;;;;;;;;;;5054258;28;20025;-62
2021/03/06 02:09:54;;;;;;;3.50;2.70;;;;;;;;;;5053975;28;20032;-61
2021/03/06 02:12:42;;;;;;;4.90;2.50;;;;;;;;;;5053747;28;20048;-62
2021/03/06 02:15:16;;;;;;;10.30;3.13;;;;;;;;;;5054138;28;20035;-62
2021/03/06 02:17:56;;;;;;;4.18;2.55;;;;;;;;;;5053800;28;20035;-62
2021/03/06 02:20:41;;;;;;;6.25;3.58;;;;;;;;;;5053774;28;20385;-61
2021/03/06 02:23:25;;;;;;;4.22;2.95;;;;;;;;;;5053459;28;20028;-61
2021/03/06 02:26:10;;;;;;;5.07;2.78;;;;;;;;;;5053711;28;20151;-61
2021/03/06 02:28:41;;;;;;;5.20;2.92;;;;;;;;;;5053473;28;20027;-61
2021/03/06 02:31:10;;;;;;;3.60;2.57;;;;;;;;;;5053676;28;20086;-61
2021/03/06 02:33:37;;;;;;;4.07;2.58;;;;;;;;;;5053425;28;20025;-62
2021/03/06 02:36:08;;;;;;;4.55;3.10;;;;;;;;;;5053646;28;20036;-61
2021/03/06 02:38:35;;;;;;;4.50;3.00;;;;;;;;;;5053329;28;20119;-62
2021/03/06 02:41:02;;;;;;;4.80;2.97;;;;;;;;;;5053466;28;20036;-62
2021/03/06 02:43:29;;;;;;;5.95;3.20;;;;;;;;;;5053732;28;20482;-62
2021/03/06 02:45:56;;;;;;;5.07;3.00;;;;;;;;;;5053377;28;20021;-62
2021/03/06 02:48:22;;;;;;;5.78;3.60;;;;;;;;;;5053227;28;20107;-62
2021/03/06 02:50:52;;;;;;;5.30;3.33;;;;;;;;;;5053073;28;20017;-62
2021/03/06 02:53:19;;;;;;;4.50;3.35;;;;;;;;;;5052687;28;20021;-61
2021/03/06 02:55:45;;;;;;;6.30;4.13;;;;;;;;;;5053235;28;20029;-62
2021/03/06 02:58:14;;;;;;;4.80;3.17;;;;;;;;;;5052974;28;20061;-61
2021/03/06 03:00:49;;;;;;;6.80;3.88;;;;;;;;;;5053404;28;20033;-62
2021/03/06 03:03:15;;;;;;;6.70;3.63;;;;;;;;;;5053091;28;20024;-62
2021/03/06 03:05:55;;;;;;;5.80;3.90;;;;;;;;;;5053057;28;20075;-62
2021/03/06 03:08:24;;;;;;;4.55;3.28;;;;;;;;;;5053168;28;20025;-61
2021/03/06 03:10:55;;;;;;;5.75;3.63;;;;;;;;;;5052781;28;20166;-61
2021/03/06 03:13:22;;;;;;;5.47;3.65;;;;;;;;;;5053266;28;20029;-62
2021/03/06 03:15:51;;;;;;;5.63;3.58;;;;;;;;;;5052849;28;20474;-62
2021/03/06 03:18:19;;;;;;;5.75;3.75;;;;;;;;;;5052891;28;20102;-61
2021/03/06 03:20:49;;;;;;;6.03;3.60;;;;;;;;;;5052839;28;20377;-62
2021/03/06 03:23:16;;;;;;;4.97;3.20;;;;;;;;;;5053283;28;20041;-62
2021/03/06 03:25:43;;;;;;;8.20;3.65;;;;;;;;;;5053046;28;20025;-60
2021/03/06 03:28:10;;;;;;;6.30;3.20;;;;;;;;;;5052879;28;20040;-62
2021/03/06 03:30:37;;;;;;;5.45;3.65;;;;;;;;;;5053004;28;20033;-61
2021/03/06 03:33:05;;;;;;;7.03;3.63;;;;;;;;;;5053120;28;20111;-62
2021/03/06 03:35:32;;;;;;;4.78;3.25;;;;;;;;;;5052617;28;20040;-61
2021/03/06 03:37:59;;;;;;;6.03;3.63;;;;;;;;;;5052709;28;20037;-62
2021/03/06 03:40:26;;;;;;;6.82;3.80;;;;;;;;;;5052737;28;20016;-62
2021/03/06 03:42:52;;;;;;;6.57;3.70;;;;;;;;;;5052687;28;20478;-61
2021/03/06 03:45:20;;;;;;;5.60;3.00;;;;;;;;;;5053022;28;20420;-62
2021/03/06 03:47:46;;;;;;;5.57;3.53;;;;;;;;;;5052616;28;20116;-62
2021/03/06 03:50:14;;;;;;;5.47;3.70;;;;;;;;;;5052761;28;20025;-60
2021/03/06 03:52:42;;;;;;;6.30;3.90;;;;;;;;;;5052758;28;20033;-61
2021/03/06 03:55:09;;;;;;;5.40;3.53;;;;;;;;;;5052788;28;20326;-62
2021/03/06 03:57:38;;;;;;;6.20;3.47;;;;;;;;;;5052512;28;20072;-62
2021/03/06 04:00:05;;;;;;;5.15;3.38;;;;;;;;;;5052515;28;20025;-61
2021/03/06 04:02:32;;;;;;;5.20;3.47;;;;;;;;;;5052599;28;20025;-61
2021/03/06 04:04:58;;;;;;;5.30;3.55;;;;;;;;;;5056220;28;20056;-61
2021/03/06 04:07:24;;;;;;;4.80;3.70;;;;;;;;;;5056122;28;20036;-61
2021/03/06 04:09:50;;;;;;;8.75;3.47;;;;;;;;;;5056355;28;20021;-61
2021/03/06 04:12:17;;;;;;;6.60;3.70;;;;;;;;;;5055982;28;20049;-60
2021/03/06 04:14:43;;;;;;;6.60;3.55;;;;;;;;;;5056432;28;20529;-59
2021/03/06 04:17:10;;;;;;;5.07;3.20;;;;;;;;;;5055947;28;20029;-60
2021/03/06 04:19:36;;;;;;;5.68;3.47;;;;;;;;;;5055934;28;20516;-61
2021/03/06 04:22:02;;;;;;;5.80;4.13;;;;;;;;;;5056051;28;20033;-61
2021/03/06 04:24:28;;;;;;;5.15;3.38;;;;;;;;;;5056241;28;20048;-61
2021/03/06 04:26:54;;;;;;;5.88;3.10;;;;;;;;;;5055939;28;20032;-61
2021/03/06 04:29:21;;;;;;;4.55;3.03;;;;;;;;;;5055829;28;20074;-59
2021/03/06 04:31:47;;;;;;;11.30;3.40;;;;;;;;;;5055665;28;20033;-61
2021/03/06 04:34:14;;;;;;;7.05;3.33;;;;;;;;;;5055753;28;20021;-61
2021/03/06 04:36:40;;;;;;;7.10;3.13;;;;;;;;;;5055494;28;20120;-61
2021/03/06 04:39:06;;;;;;;4.88;3.22;;;;;;;;;;5055568;28;20029;-61
2021/03/06 04:41:32;;;;;;;5.97;3.08;;;;;;;;;;5055541;28;20117;-61
2021/03/06 04:43:58;;;;;;;4.68;2.97;;;;;;;;;;5055502;28;20040;-60
2021/03/06 04:46:25;;;;;;;7.07;2.92;;;;;;;;;;5055403;28;20036;-62
2021/03/06 04:48:51;;;;;;;5.07;2.38;;;;;;;;;;5055308;28;20481;-60
2021/03/06 04:51:17;;;;;;;5.20;3.13;;;;;;;;;;5055489;28;20028;-62
2021/03/06 04:53:43;;;;;;;6.28;3.05;;;;;;;;;;5054188;28;20033;-60
2021/03/06 04:56:09;;;;;;;7.95;2.78;;;;;;;;;;5055373;28;20029;-61
2021/03/06 04:58:35;;;;;;;6.53;3.00;;;;;;;;;;5055571;28;20033;-61
2021/03/06 05:01:02;;;;;;;5.88;3.50;;;;;;;;;;5055119;28;20075;-61
2021/03/06 05:03:28;;;;;;;7.72;3.90;;;;;;;;;;5055176;28;20083;-61
2021/03/06 05:05:55;;;;;;;6.35;3.65;;;;;;;;;;5055464;28;20413;-61
2021/03/06 05:08:21;;;;;;;5.10;3.05;;;;;;;;;;5055363;28;20099;-61
2021/03/06 05:10:47;;;;;;;6.55;3.42;;;;;;;;;;5054925;28;20071;-61
2021/03/06 05:13:13;;;;;;;6.82;3.22;;;;;;;;;;5054962;28;20021;-61
2021/03/06 05:15:39;;;;;;;8.20;3.55;;;;;;;;;;5054062;28;20160;-60
2021/03/06 05:18:05;;;;;;;13.90;4.10;;;;;;;;;;5054864;28;20143;-61
2021/03/06 05:20:31;;;;;;;8.63;3.40;;;;;;;;;;5055078;28;20049;-61
2021/03/06 05:22:58;;;;;;;7.93;3.40;;;;;;;;;;5054762;28;20103;-61
2021/03/06 05:25:24;;;;;;;5.85;3.45;;;;;;;;;;5054849;28;20050;-61
2021/03/06 05:27:53;;;;;;;5.10;2.80;;;;;;;;;;5053590;28;20115;-61
2021/03/06 05:30:20;;;;;;;10.93;2.97;;;;;;;;;;5055071;28;20111;-61
2021/03/06 05:32:47;;;;;;;4.57;2.70;;;;;;;;;;5054518;28;20458;-61
2021/03/06 05:35:13;;;;;;;5.30;2.95;;;;;;;;;;5054857;28;20028;-59
2021/03/06 05:37:39;;;;;;;4.93;2.35;;;;;;;;;;5054371;28;20040;-61
2021/03/06 05:40:05;;;;;;;4.60;2.35;;;;;;;;;;5054843;28;20420;-61
2021/03/06 05:42:32;;;;;;;5.28;2.50;;;;;;;;;;5053238;28;20025;-61
2021/03/06 05:44:58;;;;;;;13.00;4.13;;;;;;;;;;5054558;28;20033;-61
2021/03/06 05:47:25;;;;;;;6.68;3.80;;;;;;;;;;5054624;28;20087;-61
2021/03/06 05:49:51;;;;;;;4.18;2.65;;;;;;;;;;5054325;28;20024;-61
2021/03/06 05:52:19;;;;;;;4.22;2.50;;;;;;;;;;5054105;28;20056;-59
2021/03/06 05:54:49;;;;;;;5.80;2.67;;;;;;;;;;5054588;28;20028;-60
2021/03/06 05:57:17;;;;;;;4.63;2.03;;;;;;;;;;5054051;28;20116;-59
2021/03/06 05:59:45;;;;;;;6.63;2.40;;;;;;;;;;5054219;28;20028;-60
2021/03/06 06:02:11;;;;;;;4.72;2.40;;;;;;;;;;5050651;28;20025;-60
2021/03/06 06:04:39;;;;;;;5.35;3.03;;;;;;;;;;5023598;28;20025;-59
2021/03/06 06:07:06;;;;;;;6.45;2.28;;;;;;;;;;5034996;28;20056;-59
2021/03/06 06:09:33;;;;;;;4.78;2.53;;;;;;;;;;5041029;28;20026;-59
2021/03/06 06:12:00;;;;;;;4.72;3.03;;;;;;;;;;5032656;28;20087;-59
2021/03/06 06:14:26;;;;;;;7.93;2.53;;;;;;;;;;5033852;28;20037;-61
2021/03/06 06:16:53;;;;;;;8.45;3.80;;;;;;;;;;5033921;28;20025;-61
2021/03/06 06:19:19;;;;;;;9.60;3.00;;;;;;;;;;5034653;28;20037;-60
2021/03/06 06:21:46;;;;;;;11.88;3.75;;;;;;;;;;5014087;28;20379;-61
2021/03/06 06:24:15;;;;;;;3.88;2.53;;;;;;;;;;5013811;28;20108;-60
2021/03/06 06:26:51;;;;;;;3.53;2.30;;;;;;;;;;5012595;28;20029;-59
2021/03/06 06:29:17;;;;;;;13.27;2.95;;;;;;;;;;5031054;28;20113;-60
2021/03/06 06:31:56;;;;;;;5.30;2.30;;;;;;;;;;5051065;28;20048;-60
2021/03/06 06:34:22;;;;;;;5.97;2.15;;;;;;;;;;5033910;28;20382;-59
2021/03/06 06:36:48;;;;;;;6.57;2.33;;;;;;;;;;5033766;28;20021;-61
2021/03/06 06:39:14;;;;;;;9.55;2.65;;;;;;;;;;5033511;28;20394;-59
2021/03/06 06:41:50;;;;;;;10.00;2.95;;;;;;;;;;5034323;28;20040;-60
2021/03/06 06:44:16;;;;;;;7.82;2.50;;;;;;;;;;5034630;28;20029;-60
2021/03/06 06:46:43;;;;;;;5.93;2.20;;;;;;;;;;5050112;28;20017;-59
2021/03/06 06:49:09;;;;;;;13.00;2.58;;;;;;;;;;5030674;28;20056;-60
2021/03/06 06:51:35;;;;;;;10.70;2.50;;;;;;;;;;5033840;28;20136;-60
2021/03/06 06:54:08;;;;;;;5.05;1.88;;;;;;;;;;5033526;28;20022;-60
2021/03/06 06:56:35;;;;;;;9.10;3.17;;;;;;;;;;5033554;28;20029;-61
2021/03/06 06:59:05;;;;;;;18.25;9.68;;;;;;;;;;5032970;28;20090;-61
2021/03/06 07:01:36;;;;;;;15.52;5.63;;;;;;;;;;5032547;28;20036;-61
2021/03/06 07:04:03;;;;;;;12.20;4.43;;;;;;;;;;5027886;28;20053;-61
2021/03/06 07:06:29;;;;;;;10.93;2.75;;;;;;;;;;5033216;28;20033;-61
2021/03/06 07:09:11;;;;;;;8.65;2.20;;;;;;;;;;5031747;28;20524;-61
2021/03/06 07:11:38;;;;;;;6.10;2.72;;;;;;;;;;5025757;28;20050;-61
2021/03/06 07:14:05;;;;;;;9.98;1.98;;;;;;;;;;5013281;28;20032;-62
2021/03/06 07:16:49;;;;;;;8.70;2.58;;;;;;;;;;5013553;28;20104;-62
2021/03/06 07:19:15;;;;;;;7.65;2.03;;;;;;;;;;5012787;28;20049;-61
2021/03/06 07:21:48;;;;;;;8.90;3.25;;;;;;;;;;5012969;28;20105;-61
2021/03/06 07:24:15;;;;;;;12.65;2.78;;;;;;;;;;5013075;28;20029;-61
2021/03/06 07:26:41;;;;;;;5.00;1.70;;;;;;;;;;5013448;28;20030;-62
2021/03/06 07:29:07;;;;;;;10.15;1.73;;;;;;;;;;5016774;28;20036;-61
2021/03/06 07:31:37;;;;;;;16.30;3.25;;;;;;;;;;5026641;28;20026;-59
2021/03/06 07:34:03;;;;;;;3.75;1.60;;;;;;;;;;5031117;28;20108;-60
2021/03/06 07:36:29;;;;;;;10.32;2.05;;;;;;;;;;5032903;28;20079;-62
2021/03/06 07:38:59;;;;;;;19.88;2.95;;;;;;;;;;5034871;28;20478;-62
2021/03/06 07:41:26;;;;;;;5.68;1.65;;;;;;;;;;5035653;28;20026;-61
2021/03/06 07:43:52;;;;;;;5.05;1.80;;;;;;;;;;5036738;28;20025;-62
2021/03/06 07:46:18;;;;;;;5.80;1.75;;;;;;;;;;5034578;28;20471;-62
2021/03/06 07:48:49;;;;;;;16.33;2.08;;;;;;;;;;5017040;28;20034;-61
2021/03/06 07:51:16;;;;;;;7.22;1.80;;;;;;;;;;5016967;28;20026;-62
2021/03/06 07:53:45;;;;;;;10.50;1.90;;;;;;;;;;5016777;28;20034;-62
2021/03/06 07:56:12;;;;;;;15.57;2.38;;;;;;;;;;5016897;28;20025;-61
2021/03/06 07:58:48;;;;;;;10.70;1.98;;;;;;;;;;5016668;28;20046;-61
2021/03/06 08:01:27;;;;;;;4.22;1.60;;;;;;;;;;5016540;28;20471;-61
2021/03/06 08:03:53;;;;;;;9.52;1.90;;;;;;;;;;5016529;28;20491;-59
2021/03/06 08:06:27;;;;;;;14.23;1.73;;;;;;;;;;5035476;28;20063;-61
2021/03/06 08:08:55;;;;;;;12.48;1.90;;;;;;;;;;5028111;28;20375;-62
2021/03/06 08:11:22;;;;;;;3.90;1.80;;;;;;;;;;5034501;28;20048;-62
2021/03/06 08:13:51;;;;;;;7.47;1.92;;;;;;;;;;5035925;28;20103;-62
2021/03/06 08:16:23;;;;;;;10.32;2.25;;;;;;;;;;5036015;28;20036;-61
2021/03/06 08:19:01;;;;;;;11.07;1.95;;;;;;;;;;5027666;28;20446;-62
2021/03/06 08:21:29;;;;;;;9.80;2.10;;;;;;;;;;5023795;28;20030;-61
2021/03/06 08:26:40;;;;;;;5.50;1.40;;;;;;;;;;5015976;28;20040;-62
2021/03/06 08:29:28;;;;;;;13.38;2.10;;;;;;;;;;5016349;28;20026;-62
2021/03/06 08:31:55;;;;;;;7.88;2.05;;;;;;;;;;5024379;28;20026;-60
2021/03/06 08:34:28;;;;;;;6.97;1.60;;;;;;;;;;5032312;28;20381;-61
2021/03/06 08:37:16;;;;;;;7.20;2.20;;;;;;;;;;5035701;28;20079;-61
2021/03/06 08:39:56;;;;;;;6.47;1.88;;;;;;;;;;5015611;28;20038;-62
2021/03/06 08:42:27;;;;;;;10.93;1.70;;;;;;;;;;5016146;28;20025;-62
2021/03/06 08:44:53;;;;;;;6.13;1.52;;;;;;;;;;5023413;28;20033;-60
2021/03/06 08:47:23;;;;;;;9.10;2.00;;;;;;;;;;5035638;28;20018;-59
2021/03/06 08:49:53;;;;;;;3.90;1.80;;;;;;;;;;5034131;28;20513;-60
2021/03/06 08:52:20;;;;;;;11.63;1.80;;;;;;;;;;5035762;28;20025;-61
2021/03/06 08:54:46;;;;;;;6.00;2.20;;;;;;;;;;5035079;28;20100;-61
2021/03/06 08:57:24;;;;;;;12.77;2.25;;;;;;;;;;5035933;28;20048;-61
2021/03/06 08:59:51;;;;;;;29.33;9.18;;;;;;;;;;5028127;28;20087;-61
2021/03/06 09:02:20;;;;;;;26.98;11.30;;;;;;;;;;5022544;28;20508;-60
2021/03/06 09:04:46;;;;;;;48.00;19.23;;;;;;;;;;5023163;28;20450;-60
2021/03/06 09:07:25;;;;;;;28.10;9.93;;;;;;;;;;5033833;28;20026;-60
2021/03/06 09:09:51;;;;;;;18.50;7.25;;;;;;;;;;5025674;28;20061;-61
2021/03/06 09:12:18;;;;;;;52.35;12.75;;;;;;;;;;5021834;28;20046;-60
2021/03/06 09:14:44;;;;;;;23.10;9.27;;;;;;;;;;5018725;28;20109;-60
2021/03/06 09:17:11;;;;;;;11.43;1.95;;;;;;;;;;5015147;28;20025;-61
2021/03/06 09:19:37;;;;;;;4.05;1.67;;;;;;;;;;5014216;28;20038;-62
2021/03/06 09:22:08;;;;;;;7.28;2.15;;;;;;;;;;5019951;28;20113;-61
2021/03/06 09:24:50;;;;;;;15.15;2.78;;;;;;;;;;5047436;28;20029;-62
2021/03/06 09:27:17;;;;;;;9.98;2.03;;;;;;;;;;5053374;28;20108;-61
2021/03/06 09:29:44;;;;;;;8.07;1.90;;;;;;;;;;5052840;28;20090;-60
2021/03/06 09:32:10;;;;;;;5.63;1.50;;;;;;;;;;5023004;28;20034;-59
2021/03/06 09:34:37;;;;;;;4.00;1.60;;;;;;;;;;5036281;28;20022;-59
2021/03/06 09:37:16;;;;;;;8.73;1.77;;;;;;;;;;5034275;28;20040;-59
2021/03/06 09:39:42;;;;;;;3.15;1.77;;;;;;;;;;5033720;28;20364;-61
2021/03/06 09:42:08;;;;;;;8.13;3.47;;;;;;;;;;5035498;28;20020;-61
2021/03/06 09:44:35;;;;;;;10.10;2.00;;;;;;;;;;5043321;28;20025;-61
2021/03/06 09:47:01;;;;;;;11.77;2.20;;;;;;;;;;5035470;28;20021;-61
2021/03/06 09:49:37;;;;;;;3.17;1.55;;;;;;;;;;5044438;28;20021;-60
2021/03/06 09:52:03;;;;;;;9.35;2.00;;;;;;;;;;5052436;28;20098;-60
2021/03/06 09:54:35;;;;;;;5.22;2.17;;;;;;;;;;5027271;28;20029;-61
2021/03/06 09:57:03;;;;;;;12.75;1.85;;;;;;;;;;5029616;28;20116;-60
2021/03/06 09:59:35;;;;;;;7.15;2.13;;;;;;;;;;5027115;28;20133;-59
2021/03/06 10:02:01;;;;;;;;;;;;;;;;;;5024794;28;20049;-61
2021/03/06 10:04:27;;;;;;;9.65;1.75;;;;;;;;;;5031166;28;19909;-61
2021/03/06 10:06:54;;;;;;;6.85;1.70;;;;;;;;;;5017261;28;20025;-61
2021/03/06 10:09:21;;;;;;;5.97;1.55;;;;;;;;;;5027009;28;20032;-61
2021/03/06 10:11:48;;;;;;;5.55;2.22;;;;;;;;;;5023935;28;20056;-61
2021/03/06 10:14:21;;;;;;;6.47;1.95;;;;;;;;;;5014085;28;20022;-61
2021/03/06 10:16:55;;;;;;;2.00;1.27;;;;;;;;;;5030909;28;20084;-60
2021/03/06 10:19:22;;;;;;;4.45;1.60;;;;;;;;;;5025717;28;20045;-59
2021/03/06 10:22:02;;;;;;;2.65;1.40;;;;;;;;;;5031540;28;20021;-59
2021/03/06 10:24:28;;;;;;;4.88;2.78;;;;;;;;;;5028371;28;20041;-61
2021/03/06 10:26:58;;;;;;;5.47;3.03;;;;;;;;;;5013816;28;20021;-60
2021/03/06 10:29:25;;;;;;;3.15;1.90;;;;;;;;;;5023492;28;20030;-61
2021/03/06 10:32:01;;;;;;;7.60;2.45;;;;;;;;;;5021574;28;20033;-60
2021/03/06 10:34:29;;;;;;;8.70;2.00;;;;;;;;;;5018688;28;20052;-59
2021/03/06 10:37:07;;;;;;;3.97;1.50;;;;;;;;;;5013762;28;20430;-60
2021/03/06 10:39:34;;;;;;;4.15;1.70;;;;;;;;;;5013720;28;20033;-61
2021/03/06 10:42:00;;;;;;;9.95;1.98;;;;;;;;;;5013667;28;20034;-60
2021/03/06 10:44:40;;;;;;;4.30;1.80;;;;;;;;;;5014007;28;20049;-61
2021/03/06 10:47:06;;;;;;;6.53;2.22;;;;;;;;;;5013930;28;20422;-60
2021/03/06 10:49:37;;;;;;;5.38;2.20;;;;;;;;;;5013864;28;20029;-61
2021/03/06 10:52:05;;;;;;;3.72;2.00;;;;;;;;;;5013478;28;20088;-61
2021/03/06 10:54:31;;;;;;;9.90;1.80;;;;;;;;;;5013446;28;20029;-60
2021/03/06 10:57:07;;;;;;;3.72;2.13;;;;;;;;;;5013867;28;20029;-61
2021/03/06 10:59:34;;;;;;;2.58;1.40;;;;;;;;;;5013410;28;20034;-60
2021/03/06 11:02:00;;;;;;;5.78;2.10;;;;;;;;;;5013541;28;20053;-61
2021/03/06 11:04:30;;;;;;;2.88;1.55;;;;;;;;;;5013431;28;20032;-61
2021/03/06 11:06:57;;;;;;;5.38;1.80;;;;;;;;;;5013091;28;20028;-61
2021/03/06 11:09:34;;;;;;;4.38;1.65;;;;;;;;;;5013129;28;20026;-62
2021/03/06 11:12:28;;;;;;;2.35;1.30;;;;;;;;;;5012452;28;20057;-62
2021/03/06 11:15:16;;;;;;;9.13;2.53;;;;;;;;;;5011727;28;20053;-62
2021/03/06 11:17:43;;;;;;;4.90;1.48;;;;;;;;;;5013024;28;20080;-61
2021/03/06 11:20:10;;;;;;;3.08;1.25;;;;;;;;;;5013456;28;20467;-61
2021/03/06 11:22:36;;;;;;;7.68;1.38;;;;;;;;;;5013616;28;20029;-61
2021/03/06 11:25:03;;;;;;;5.40;1.33;;;;;;;;;;5013160;28;20434;-61
2021/03/06 11:27:40;;;;;;;3.00;1.60;;;;;;;;;;5013265;28;20030;-61
2021/03/06 11:30:07;;;;;;;7.38;1.83;;;;;;;;;;5013197;28;20030;-61
2021/03/06 11:32:33;;;;;;;4.93;1.63;;;;;;;;;;5013152;28;20535;-61
2021/03/06 11:34:59;;;;;;;2.03;1.30;;;;;;;;;;5013126;28;20030;-62
2021/03/06 11:37:25;;;;;;;8.63;1.90;;;;;;;;;;5011809;28;20041;-62
2021/03/06 11:39:51;;;;;;;3.03;1.27;;;;;;;;;;5013365;28;20442;-62
2021/03/06 11:42:18;;;;;;;5.25;1.45;;;;;;;;;;5013446;28;20379;-61
2021/03/06 11:44:44;;;;;;;2.13;1.40;;;;;;;;;;5012977;28;20064;-61
2021/03/06 11:47:10;;;;;;;2.95;1.55;;;;;;;;;;5013409;28;20068;-62
2021/03/06 11:49:36;;;;;;;4.95;1.42;;;;;;;;;;5013281;28;20044;-62
2021/03/06 11:52:04;;;;;;;9.65;1.73;;;;;;;;;;5013302;28;20036;-62
2021/03/06 11:54:31;;;;;;;2.67;1.48;;;;;;;;;;5013263;28;20032;-62
2021/03/06 11:56:57;;;;;;;4.13;1.45;;;;;;;;;;5013256;28;20160;-62
2021/03/06 11:59:23;;;;;;;2.83;1.42;;;;;;;;;;5011587;28;20453;-62
2021/03/06 12:01:49;;;;;;;4.00;1.70;;;;;;;;;;5013076;28;20041;-62
2021/03/06 12:04:15;;;;;;;5.25;2.03;;;;;;;;;;5013097;28;20026;-62
2021/03/06 12:06:41;;;;;;;3.35;1.75;;;;;;;;;;5013619;28;20037;-62
2021/03/06 12:09:08;;;;;;;2.45;1.40;;;;;;;;;;5011631;28;20030;-62
2021/03/06 12:11:34;;;;;;;2.78;1.48;;;;;;;;;;5013005;28;20407;-62
2021/03/06 12:14:00;;;;;;;4.05;1.60;;;;;;;;;;5013089;28;20072;-61
2021/03/06 12:16:27;;;;;;;8.30;2.20;;;;;;;;;;5012753;28;20022;-62
2021/03/06 12:18:53;;;;;;;5.57;1.63;;;;;;;;;;5012569;28;20048;-62
2021/03/06 12:21:20;;;;;;;3.90;1.60;;;;;;;;;;5012697;28;20038;-62
2021/03/06 12:23:46;;;;;;;9.57;2.17;;;;;;;;;;5013231;28;20029;-61
2021/03/06 12:26:14;;;;;;;5.85;1.30;;;;;;;;;;5016297;28;20076;-62
2021/03/06 12:28:40;;;;;;;3.55;1.50;;;;;;;;;;5016052;28;20040;-62
2021/03/06 12:31:06;;;;;;;8.93;1.65;;;;;;;;;;5016283;28;20030;-62
2021/03/06 12:33:32;;;;;;;3.40;1.70;;;;;;;;;;5015934;28;20034;-61
2021/03/06 12:35:58;;;;;;;5.53;1.65;;;;;;;;;;5016518;28;20030;-62
2021/03/06 12:38:24;;;;;;;5.13;1.52;;;;;;;;;;5016286;28;20131;-62
2021/03/06 12:40:50;;;;;;;3.08;1.48;;;;;;;;;;5016338;28;20038;-61
2021/03/06 12:43:17;;;;;;;4.22;1.90;;;;;;;;;;5016086;28;20025;-61
2021/03/06 12:45:43;;;;;;;3.13;1.80;;;;;;;;;;5016154;28;20104;-61
2021/03/06 12:48:09;;;;;;;4.40;1.88;;;;;;;;;;5016046;28;20026;-62
2021/03/06 12:50:35;;;;;;;5.60;1.63;;;;;;;;;;5015897;28;20032;-61
2021/03/06 12:53:01;;;;;;;4.32;1.70;;;;;;;;;;5015720;28;20026;-61
2021/03/06 12:55:27;;;;;;;3.05;1.63;;;;;;;;;;5014527;28;20022;-62
2021/03/06 12:57:54;;;;;;;4.25;1.77;;;;;;;;;;5015687;28;20058;-61
2021/03/06 13:00:20;;;;;;;3.17;1.33;;;;;;;;;;5015557;28;20088;-61
2021/03/06 13:02:46;;;;;;;3.08;1.80;;;;;;;;;;5015580;28;20026;-61
2021/03/06 13:05:13;;;;;;;13.25;2.67;;;;;;;;;;5015486;28;20113;-61
2021/03/06 13:07:39;;;;;;;4.45;1.40;;;;;;;;;;5015515;28;20026;-61
2021/03/06 13:10:05;;;;;;;5.40;1.50;;;;;;;;;;5015352;28;20462;-62
2021/03/06 13:12:31;;;;;;;3.50;1.30;;;;;;;;;;5015310;28;20049;-61
2021/03/06 13:14:58;;;;;;;3.25;1.70;;;;;;;;;;5014707;28;20053;-61
2021/03/06 13:17:25;;;;;;;5.97;1.85;;;;;;;;;;5029173;28;20105;-62
2021/03/06 13:19:51;;;;;;;2.95;1.42;;;;;;;;;;5031879;28;20037;-61
2021/03/06 13:22:17;;;;;;;6.32;1.80;;;;;;;;;;5031716;28;20018;-61
2021/03/06 13:24:43;;;;;;;3.00;1.58;;;;;;;;;;5032655;28;20090;-61
2021/03/06 13:27:10;;;;;;;4.82;1.50;;;;;;;;;;5033094;28;20525;-61
2021/03/06 13:29:36;;;;;;;5.78;1.58;;;;;;;;;;5032985;28;20490;-61
2021/03/06 13:32:02;;;;;;;3.72;1.83;;;;;;;;;;5033227;28;20494;-62
2021/03/06 13:34:28;;;;;;;3.97;1.65;;;;;;;;;;5033093;28;20473;-62
2021/03/06 13:36:54;;;;;;;6.72;1.50;;;;;;;;;;5032421;28;20045;-61
2021/03/06 13:39:20;;;;;;;3.42;1.73;;;;;;;;;;5031404;28;20081;-61
2021/03/06 13:41:47;;;;;;;3.10;1.52;;;;;;;;;;5033295;28;20418;-62
2021/03/06 13:44:13;;;;;;;3.45;1.45;;;;;;;;;;5033038;28;20053;-62
2021/03/06 13:46:39;;;;;;;10.18;1.70;;;;;;;;;;5032803;28;20029;-61
2021/03/06 13:49:05;;;;;;;5.45;2.40;;;;;;;;;;5032720;28;20025;-62
2021/03/06 13:51:32;;;;;;;4.07;1.77;;;;;;;;;;5032678;28;20395;-60
2021/03/06 13:53:58;;;;;;;4.00;1.70;;;;;;;;;;5031248;28;20421;-61
2021/03/06 13:56:25;;;;;;;3.65;1.40;;;;;;;;;;5032837;28;20033;-61
2021/03/06 13:58:51;;;;;;;3.15;1.48;;;;;;;;;;5032611;28;20394;-62
2021/03/06 14:01:18;;;;;;;5.43;1.73;;;;;;;;;;5032600;28;20479;-62
2021/03/06 14:03:44;;;;;;;3.55;1.92;;;;;;;;;;5033009;28;20389;-61
2021/03/06 14:06:11;;;;;;;4.30;1.80;;;;;;;;;;5032583;28;20378;-61
2021/03/06 14:08:37;;;;;;;3.95;1.65;;;;;;;;;;5032420;28;20025;-61
2021/03/06 14:11:03;;;;;;;4.05;1.92;;;;;;;;;;5032013;28;20045;-61
2021/03/06 14:13:30;;;;;;;4.03;1.60;;;;;;;;;;5032298;28;20079;-61
2021/03/06 14:15:56;;;;;;;3.22;1.77;;;;;;;;;;5032376;28;20095;-61
2021/03/06 14:18:22;;;;;;;5.28;1.80;;;;;;;;;;5030884;28;20036;-61
2021/03/06 14:20:48;;;;;;;5.47;1.65;;;;;;;;;;5031463;28;20152;-61
2021/03/06 14:23:15;;;;;;;4.63;1.50;;;;;;;;;;5031987;28;20159;-61
2021/03/06 14:25:41;;;;;;;3.05;1.63;;;;;;;;;;5032114;28;20542;-61
2021/03/06 14:28:07;;;;;;;6.18;1.88;;;;;;;;;;5032842;28;20034;-61
2021/03/06 14:30:33;;;;;;;3.15;1.52;;;;;;;;;;5032164;28;20018;-61
2021/03/06 14:32:59;;;;;;;3.00;1.30;;;;;;;;;;5032170;28;20033;-61
2021/03/06 14:35:25;;;;;;;4.22;2.17;;;;;;;;;;5031767;28;20021;-60
2021/03/06 14:37:52;;;;;;;4.25;1.85;;;;;;;;;;5032381;28;20040;-60
2021/03/06 14:40:18;;;;;;;4.03;1.65;;;;;;;;;;5031599;28;20037;-61
2021/03/06 14:42:44;;;;;;;4.40;1.85;;;;;;;;;;5031834;28;20413;-61
2021/03/06 14:45:10;;;;;;;9.93;3.35;;;;;;;;;;5032014;28;20405;-61
2021/03/06 14:47:36;;;;;;;7.25;2.90;;;;;;;;;;5031907;28;20021;-61